createdAt,value
2023-02-03T01:18:26.608Z,20.45
2023-02-03T01:43:13.394Z,17.73
2023-02-03T01:52:59.851Z,18.50
2023-02-03T01:55:59.906Z,18.27
2023-02-03T02:08:21.497Z,16.40
2023-02-03T02:11:29.560Z,15.65
2023-02-03T02:18:03.552Z,16.08
2023-02-03T02:21:21.637Z,16.23
2023-02-03T02:30:57.963Z,15.07
2023-02-03T02:37:22.776Z,15.45
2023-02-03T02:40:42.324Z,15.45
2023-02-03T02:43:30.066Z,15.23
2023-02-03T02:46:10.227Z,14.77
2023-02-03T02:48:43.678Z,14.88
2023-02-03T02:51:14.015Z,14.80
2023-02-03T02:53:46.901Z,15.10
2023-02-03T02:56:16.830Z,14.82
2023-02-03T02:58:47.314Z,14.48
2023-02-03T03:01:16.156Z,14.88
2023-02-03T03:03:45.233Z,14.85
2023-02-03T03:06:45.734Z,14.18
2023-02-03T03:09:19.548Z,14.48
2023-02-03T03:12:21.100Z,14.63
2023-02-03T03:14:58.814Z,14.80
2023-02-03T03:17:30.395Z,16.10
2023-02-03T03:20:04.895Z,14.95
2023-02-03T03:22:36.982Z,14.65
2023-02-03T03:25:17.396Z,15.68
2023-02-03T03:27:50.719Z,15.07
2023-02-03T03:30:23.507Z,16.00
2023-02-03T03:32:51.444Z,14.35
2023-02-03T03:35:19.505Z,15.90
2023-02-03T03:38:16.977Z,16.17
2023-02-03T03:40:51.517Z,15.35
2023-02-03T03:43:22.540Z,15.43
2023-02-03T03:45:52.261Z,14.63
2023-02-03T03:48:34.452Z,15.65
2023-02-03T03:51:16.497Z,15.40
2023-02-03T03:53:45.880Z,15.57
2023-02-03T03:56:28.522Z,14.25
2023-02-03T03:58:57.370Z,15.30
2023-02-03T04:01:25.246Z,14.18
2023-02-03T04:04:02.941Z,15.20
2023-02-03T04:06:29.987Z,15.60
2023-02-03T04:08:57.210Z,15.90
2023-02-03T04:11:45.691Z,15.23
2023-02-03T04:14:12.653Z,15.20
2023-02-03T04:16:39.657Z,15.05
2023-02-03T04:19:08.455Z,15.30
2023-02-03T04:21:35.697Z,14.55
2023-02-03T04:24:02.689Z,15.05
2023-02-03T04:26:29.737Z,15.40
2023-02-03T04:32:29.620Z,16.02
2023-02-03T04:35:15.358Z,15.07
2023-02-03T04:38:35.259Z,15.40
2023-02-03T04:57:17.959Z,15.98
2023-02-03T05:03:34.156Z,15.13
2023-02-03T05:09:02.423Z,15.20
2023-02-03T05:11:46.398Z,14.48
2023-02-03T05:14:24.896Z,15.23
2023-02-03T05:17:10.983Z,14.90
2023-02-03T05:25:45.813Z,14.88
2023-02-03T05:28:52.495Z,15.43
2023-02-03T05:35:36.594Z,14.20
2023-02-03T05:38:08.037Z,15.18
2023-02-03T05:40:53.654Z,14.73
2023-02-03T05:43:20.745Z,15.75
2023-02-03T05:45:47.702Z,15.38
2023-02-03T05:48:14.762Z,15.02
2023-02-03T05:50:41.889Z,15.32
2023-02-03T05:53:09.014Z,15.45
2023-02-03T05:55:36.782Z,14.65
2023-02-03T05:58:04.767Z,14.85
2023-02-03T06:00:31.852Z,15.32
2023-02-03T06:03:00.851Z,15.25
2023-02-03T06:05:28.182Z,15.20
2023-02-03T06:07:55.506Z,16.23
2023-02-03T06:17:10.901Z,15.15
2023-02-03T06:19:37.907Z,15.48
2023-02-03T06:22:05.252Z,15.35
2023-02-03T06:24:32.357Z,15.32
2023-02-03T06:26:59.369Z,15.93
2023-02-03T06:29:26.628Z,15.85
2023-02-03T06:31:53.829Z,15.13
2023-02-03T06:34:21.118Z,15.68
2023-02-03T06:36:49.184Z,15.55
2023-02-03T06:39:16.377Z,16.85
2023-02-03T06:41:43.378Z,15.25
2023-02-03T06:44:10.344Z,15.60
2023-02-03T06:46:37.623Z,15.85
2023-02-03T06:49:33.997Z,15.68
2023-02-03T06:52:05.081Z,16.77
2023-02-03T06:54:32.088Z,16.90
2023-02-03T06:57:07.337Z,16.50
2023-02-03T06:59:34.290Z,16.67
2023-02-03T07:02:01.244Z,17.20
2023-02-03T07:04:30.199Z,16.55
2023-02-03T07:06:57.780Z,17.45
2023-02-03T07:38:03.539Z,21.90
2023-02-03T07:40:36.567Z,22.02
2023-02-03T07:43:03.568Z,21.70
2023-02-03T07:45:30.596Z,23.08
2023-02-03T07:47:57.539Z,23.17
2023-02-03T07:50:24.640Z,23.75
2023-02-03T07:52:52.309Z,24.35
2023-02-03T07:55:19.462Z,24.33
2023-02-03T07:57:46.447Z,24.52
2023-02-03T08:00:15.153Z,24.55
2023-02-03T08:02:43.059Z,25.30
2023-02-03T08:08:00.099Z,25.90
2023-02-03T09:08:34.207Z,30.70
2023-02-03T09:11:01.363Z,29.52
2023-02-03T09:13:31.114Z,29.75
2023-02-03T09:22:39.143Z,29.73
2023-02-03T09:25:07.574Z,28.60
2023-02-03T10:27:06.508Z,26.48
2023-02-03T10:38:17.702Z,27.13
2023-02-03T23:47:50.318Z,28.88
2023-02-03T23:50:19.089Z,28.42
2023-02-03T23:52:47.027Z,30.40
2023-02-03T23:55:17.123Z,28.55
2023-02-03T23:57:44.741Z,29.23
